Terminal Aerodrome Forecast
Issued by NWS

Home | Current Version | Previous Version | Text Only | Print | Product List | Glossary On
Versions: 1 2 3 4 5 6 7 8 9 10 11 12
000
FTUS45 KABQ 290538
TAFTCC
TAF
KTCC 290538Z 2906/3006 08006KT P6SM BKN250
     FM291600 16010KT P6SM SCT200
     FM292000 19010G18KT P6SM SCT200
     FM300000 19008KT P6SM BKN200=

USA.gov is the U.S. government's official web portal to all federal, state and local government web resources and services.